Time;durP1;ratioP1;P1;durP2;ratioP2;P2;SDS_P1;SDS_P2;PMS_P1;PMS_P2;Temp;Humidity;BMP_temperature;BMP_pressure;BME280_temperature;BME280_humidity;BME280_pressure;Samples;Min_cycle;Max_cycle;Signal;HPM_P1;HPM_P2
2021/06/21 00:01:32;;;;;;;2.33;1.98;;;19.90;93.60;;;;;;5056646;28;20029;-66
2021/06/21 00:03:58;;;;;;;2.88;2.45;;;19.80;93.80;;;;;;5055431;28;20397;-66
2021/06/21 00:06:24;;;;;;;5.88;2.55;;;19.70;94.00;;;;;;5056591;28;20021;-66
2021/06/21 00:08:50;;;;;;;4.93;3.15;;;19.70;94.10;;;;;;5056620;28;20493;-66
2021/06/21 00:11:15;;;;;;;4.60;2.58;;;19.70;94.30;;;;;;5056631;28;20176;-66
2021/06/21 00:13:41;;;;;;;3.95;3.10;;;19.70;94.40;;;;;;5056576;28;20493;-66
2021/06/21 00:16:07;;;;;;;4.57;3.08;;;19.60;94.60;;;;;;5055073;28;20028;-66
2021/06/21 00:18:32;;;;;;;5.32;3.75;;;19.60;94.80;;;;;;5038450;28;20095;-66
2021/06/21 00:20:58;;;;;;;5.40;3.33;;;19.50;94.90;;;;;;5056346;28;20033;-66
2021/06/21 00:23:23;;;;;;;4.47;2.95;;;19.50;95.00;;;;;;5056341;28;20029;-66
2021/06/21 00:25:50;;;;;;;3.50;2.50;;;19.40;95.10;;;;;;5056369;28;20481;-66
2021/06/21 00:28:16;;;;;;;5.00;2.92;;;19.40;95.20;;;;;;5056336;28;20053;-66
2021/06/21 00:30:43;;;;;;;4.43;3.28;;;19.30;95.30;;;;;;5055928;28;20029;-66
2021/06/21 00:33:09;;;;;;;4.40;2.35;;;19.30;95.40;;;;;;5055077;28;20036;-66
2021/06/21 00:35:35;;;;;;;3.63;2.95;;;19.20;95.40;;;;;;5056016;28;20472;-66
2021/06/21 00:38:01;;;;;;;4.60;3.20;;;19.20;95.80;;;;;;5056467;28;20070;-66
2021/06/21 00:40:27;;;;;;;4.53;3.67;;;19.10;95.70;;;;;;5056154;28;20424;-66
2021/06/21 00:42:53;;;;;;;7.10;3.78;;;19.00;95.80;;;;;;5054762;28;20388;-66
2021/06/21 00:45:20;;;;;;;4.45;3.47;;;18.90;96.00;;;;;;5055851;28;20100;-66
2021/06/21 00:47:47;;;;;;;5.82;3.17;;;18.80;96.20;;;;;;5055938;28;20059;-66
2021/06/21 00:50:14;;;;;;;4.18;3.17;;;18.80;96.30;;;;;;5054518;28;20075;-66
2021/06/21 00:52:40;;;;;;;5.13;4.18;;;18.80;96.40;;;;;;5055900;28;20568;-66
2021/06/21 00:55:06;;;;;;;5.63;4.47;;;18.70;96.50;;;;;;5055873;28;20127;-66
2021/06/21 00:57:35;;;;;;;7.35;4.30;;;18.60;96.60;;;;;;5055751;28;20500;-66
2021/06/21 01:00:05;;;;;;;4.18;3.70;;;18.50;96.70;;;;;;5055565;28;20106;-66
2021/06/21 01:02:31;;;;;;;5.25;3.70;;;18.50;96.70;;;;;;5054400;28;20051;-66
2021/06/21 01:04:57;;;;;;;5.35;4.50;;;18.50;96.70;;;;;;5054757;28;20021;-66
2021/06/21 01:07:23;;;;;;;5.82;4.50;;;18.50;96.80;;;;;;5055013;28;20025;-66
2021/06/21 01:09:50;;;;;;;5.68;4.72;;;18.40;96.80;;;;;;5054174;28;20025;-66
2021/06/21 01:12:37;;;;;;;6.07;4.43;;;18.40;96.80;;;;;;5055382;28;20025;-66
2021/06/21 01:15:08;;;;;;;5.57;4.50;;;18.40;96.90;;;;;;5054290;28;20033;-66
2021/06/21 01:17:45;;;;;;;6.38;4.70;;;18.30;97.00;;;;;;5053996;28;20033;-66
2021/06/21 01:20:45;;;;;;;7.45;6.13;;;18.30;97.10;;;;;;5053942;28;20051;-66
2021/06/21 01:23:44;;;;;;;6.15;5.55;;;18.20;97.10;;;;;;5054004;28;20091;-66
2021/06/21 01:26:34;;;;;;;7.57;5.90;;;18.10;97.20;;;;;;5055330;28;20082;-66
2021/06/21 01:29:21;;;;;;;8.20;6.20;;;18.00;97.40;;;;;;5053816;28;20064;-66
2021/06/21 01:32:16;;;;;;;8.00;5.75;;;18.00;97.50;;;;;;5055177;28;20473;-66
2021/06/21 01:34:48;;;;;;;8.18;7.28;;;17.90;97.50;;;;;;5053849;28;20025;-66
2021/06/21 01:37:16;;;;;;;7.18;6.03;;;17.90;97.80;;;;;;5054851;28;20393;-66
2021/06/21 01:39:44;;;;;;;7.60;5.75;;;17.80;97.80;;;;;;5054895;28;20040;-66
2021/06/21 01:42:12;;;;;;;7.72;6.20;;;17.70;97.80;;;;;;5054881;28;20025;-66
2021/06/21 01:44:44;;;;;;;7.57;5.63;;;17.70;97.80;;;;;;5054769;28;20037;-66
2021/06/21 01:47:13;;;;;;;6.43;5.80;;;17.70;97.80;;;;;;5053516;28;20488;-66
2021/06/21 01:49:44;;;;;;;8.80;7.13;;;17.60;97.90;;;;;;5053581;28;20044;-66
2021/06/21 01:52:11;;;;;;;7.22;6.07;;;17.50;98.00;;;;;;5053291;28;20036;-66
2021/06/21 01:54:41;;;;;;;7.15;6.40;;;17.50;98.10;;;;;;5054719;28;20020;-66
2021/06/21 01:57:07;;;;;;;7.47;6.78;;;17.50;98.10;;;;;;5054635;28;20481;-66
2021/06/21 01:59:33;;;;;;;7.05;6.25;;;17.50;98.10;;;;;;5054592;28;20040;-66
2021/06/21 02:02:00;;;;;;;7.22;6.50;;;17.40;98.10;;;;;;5054565;28;20029;-66
2021/06/21 02:04:29;;;;;;;7.93;6.10;;;17.40;98.20;;;;;;5054332;28;20029;-66
2021/06/21 02:06:56;;;;;;;10.05;8.10;;;17.40;98.20;;;;;;5054485;28;20017;-66
2021/06/21 02:09:22;;;;;;;7.82;7.07;;;17.30;98.30;;;;;;5053166;28;20033;-66
2021/06/21 02:11:50;;;;;;;8.88;6.97;;;17.20;98.40;;;;;;5053125;28;20017;-66
2021/06/21 02:14:22;;;;;;;8.18;6.45;;;17.20;98.60;;;;;;5054320;28;20029;-66
2021/06/21 02:16:51;;;;;;;7.78;6.70;;;17.10;98.60;;;;;;5053864;28;20025;-66
2021/06/21 02:19:19;;;;;;;7.93;6.40;;;17.10;98.70;;;;;;5053999;28;20044;-66
2021/06/21 02:21:48;;;;;;;7.90;7.07;;;17.00;98.80;;;;;;5052885;28;20029;-66
2021/06/21 02:24:15;;;;;;;6.50;5.90;;;16.90;98.90;;;;;;5053895;28;20078;-66
2021/06/21 02:26:43;;;;;;;7.22;6.53;;;16.90;99.20;;;;;;5054142;28;20488;-66
2021/06/21 02:29:09;;;;;;;7.75;6.95;;;16.90;99.30;;;;;;5054072;28;20074;-67
2021/06/21 02:31:34;;;;;;;4.95;4.40;;;16.80;99.40;;;;;;5054096;28;20021;-66
2021/06/21 02:34:01;;;;;;;7.18;5.57;;;16.90;99.40;;;;;;5053916;28;20487;-66
2021/06/21 02:36:26;;;;;;;8.20;5.95;;;16.80;99.40;;;;;;5053732;28;20489;-66
2021/06/21 02:38:54;;;;;;;6.63;5.50;;;16.80;99.40;;;;;;5053265;28;20544;-67
2021/06/21 02:41:20;;;;;;;7.57;5.80;;;16.80;99.40;;;;;;5051674;28;20488;-66
2021/06/21 02:43:45;;;;;;;7.18;6.07;;;16.80;99.50;;;;;;5052756;28;20043;-66
2021/06/21 02:46:11;;;;;;;6.30;5.70;;;16.80;99.50;;;;;;5052655;28;20028;-66
2021/06/21 02:48:36;;;;;;;5.90;5.18;;;16.70;99.60;;;;;;5052783;28;20040;-67
2021/06/21 02:51:05;;;;;;;6.68;5.43;;;16.70;99.70;;;;;;5052806;28;20047;-66
2021/06/21 02:53:45;;;;;;;4.93;4.30;;;16.70;99.70;;;;;;5052510;28;20023;-66
2021/06/21 02:56:11;;;;;;;5.32;4.82;;;16.70;99.70;;;;;;5052727;28;20188;-67
2021/06/21 02:58:45;;;;;;;6.85;5.60;;;16.60;99.80;;;;;;5052444;28;20096;-66
2021/06/21 03:01:14;;;;;;;6.40;5.22;;;16.60;99.80;;;;;;5052569;28;20049;-66
2021/06/21 03:03:44;;;;;;;5.88;4.13;;;16.50;99.90;;;;;;5053129;28;20025;-66
2021/06/21 03:06:10;;;;;;;6.50;4.93;;;16.50;99.90;;;;;;5053404;28;20025;-66
2021/06/21 03:08:37;;;;;;;6.68;4.68;;;16.50;99.90;;;;;;5053220;28;20057;-66
2021/06/21 03:11:04;;;;;;;4.38;3.83;;;16.50;99.90;;;;;;5053255;28;20045;-66
2021/06/21 03:13:30;;;;;;;4.43;4.00;;;16.50;99.90;;;;;;5051849;28;20469;-67
2021/06/21 03:15:58;;;;;;;3.95;3.50;;;16.40;99.90;;;;;;5053143;28;20035;-66
2021/06/21 03:18:25;;;;;;;4.63;3.88;;;16.40;99.90;;;;;;5053003;28;20072;-66
2021/06/21 03:20:52;;;;;;;4.22;3.60;;;16.40;99.90;;;;;;5053191;28;20108;-67
2021/06/21 03:23:24;;;;;;;6.90;3.78;;;16.30;99.90;;;;;;5053171;28;20029;-67
2021/06/21 03:25:51;;;;;;;3.13;2.78;;;16.30;99.90;;;;;;5051562;28;20041;-67
2021/06/21 03:28:17;;;;;;;5.22;3.70;;;16.30;99.90;;;;;;5051031;28;20021;-67
2021/06/21 03:30:50;;;;;;;5.20;3.65;;;16.20;99.90;;;;;;5053216;28;20025;-67
2021/06/21 03:33:16;;;;;;;3.60;3.22;;;16.20;99.90;;;;;;5052922;28;20025;-67
2021/06/21 03:35:42;;;;;;;3.30;2.75;;;16.10;99.90;;;;;;5052922;28;20044;-67
2021/06/21 03:38:13;;;;;;;3.45;2.55;;;16.10;99.90;;;;;;5052845;28;20103;-67
2021/06/21 03:40:38;;;;;;;3.30;2.50;;;16.10;99.90;;;;;;5052804;28;20028;-68
2021/06/21 03:43:04;;;;;;;4.53;3.42;;;16.10;99.90;;;;;;5052866;28;20025;-68
2021/06/21 03:45:29;;;;;;;4.60;3.50;;;16.10;99.90;;;;;;5051428;28;20025;-67
2021/06/21 03:47:55;;;;;;;3.78;2.58;;;16.00;99.90;;;;;;5052903;28;20477;-67
2021/06/21 03:50:20;;;;;;;3.63;2.47;;;15.90;99.90;;;;;;5052825;28;20404;-67
2021/06/21 03:52:46;;;;;;;2.80;2.30;;;15.90;99.90;;;;;;5052647;28;20473;-68
2021/06/21 03:55:12;;;;;;;2.20;2.00;;;15.80;99.90;;;;;;5052657;28;20036;-68
2021/06/21 03:57:44;;;;;;;2.75;2.30;;;15.70;99.90;;;;;;5052667;28;20035;-67
2021/06/21 04:00:13;;;;;;;3.67;2.55;;;15.60;99.90;;;;;;5052909;28;20104;-67
2021/06/21 04:02:39;;;;;;;2.88;2.17;;;15.60;99.90;;;;;;5052271;28;20484;-67
2021/06/21 04:05:05;;;;;;;4.00;2.25;;;15.50;99.90;;;;;;5051878;28;20036;-67
2021/06/21 04:07:32;;;;;;;3.03;1.90;;;15.50;99.90;;;;;;5052072;28;20074;-67
2021/06/21 04:09:58;;;;;;;4.15;2.38;;;15.60;99.90;;;;;;5052651;28;20033;-67
2021/06/21 04:12:24;;;;;;;2.05;1.85;;;15.50;99.90;;;;;;5052649;28;20083;-67
2021/06/21 04:14:51;;;;;;;2.70;2.13;;;15.50;99.90;;;;;;5052600;28;20029;-67
2021/06/21 04:17:17;;;;;;;3.72;2.08;;;15.50;99.90;;;;;;5052546;28;20063;-67
2021/06/21 04:19:42;;;;;;;2.13;1.92;;;15.50;99.90;;;;;;5052328;28;20084;-68
2021/06/21 04:22:08;;;;;;;2.22;1.90;;;15.50;99.90;;;;;;5052356;28;20037;-67
2021/06/21 04:24:33;;;;;;;2.78;2.35;;;15.40;99.90;;;;;;5052356;28;20033;-67
2021/06/21 04:26:59;;;;;;;1.90;1.70;;;15.50;99.90;;;;;;5052381;28;20021;-67
2021/06/21 04:29:24;;;;;;;2.47;2.25;;;15.40;99.90;;;;;;5052848;28;20017;-67
2021/06/21 04:31:50;;;;;;;2.85;2.08;;;15.50;99.90;;;;;;5052420;28;20025;-67
2021/06/21 04:34:16;;;;;;;2.70;1.95;;;15.40;99.90;;;;;;5052374;28;20060;-67
2021/06/21 04:36:42;;;;;;;3.22;1.85;;;15.40;99.90;;;;;;5052203;28;20029;-67
2021/06/21 04:39:08;;;;;;;2.17;1.67;;;15.40;99.90;;;;;;5051173;28;20028;-67
2021/06/21 04:41:33;;;;;;;2.47;1.90;;;15.40;99.90;;;;;;5055733;28;20033;-67
2021/06/21 04:43:59;;;;;;;2.35;1.80;;;15.40;99.90;;;;;;5055988;28;20388;-67
2021/06/21 04:46:25;;;;;;;2.38;1.67;;;15.40;99.90;;;;;;5056015;28;20021;-67
2021/06/21 04:48:51;;;;;;;2.72;1.60;;;15.30;99.90;;;;;;5056299;28;20021;-67
2021/06/21 04:51:20;;;;;;;2.38;1.42;;;15.40;99.90;;;;;;5055893;28;20017;-67
2021/06/21 04:53:47;;;;;;;3.00;1.67;;;15.40;99.90;;;;;;5055870;28;20500;-67
2021/06/21 04:56:13;;;;;;;3.40;1.90;;;15.40;99.90;;;;;;5055716;28;20033;-67
2021/06/21 04:58:39;;;;;;;2.55;1.70;;;15.40;99.90;;;;;;5055723;28;20033;-67
2021/06/21 05:01:06;;;;;;;1.80;1.13;;;15.30;99.90;;;;;;5054510;28;20029;-68
2021/06/21 05:03:33;;;;;;;2.60;1.50;;;15.30;99.90;;;;;;5054256;28;20021;-68
2021/06/21 05:05:58;;;;;;;2.00;1.33;;;15.40;99.90;;;;;;5054688;28;20025;-68
2021/06/21 05:08:25;;;;;;;1.75;1.10;;;15.40;99.90;;;;;;5054340;28;20135;-68
2021/06/21 05:10:51;;;;;;;3.42;1.60;;;15.30;99.90;;;;;;5054185;28;20057;-68
2021/06/21 05:13:16;;;;;;;2.25;1.48;;;15.30;99.90;;;;;;5055535;28;20119;-68
2021/06/21 05:15:42;;;;;;;2.13;1.50;;;15.30;99.90;;;;;;5055752;28;20036;-68
2021/06/21 05:18:07;;;;;;;1.63;1.38;;;15.30;99.90;;;;;;5055146;28;20148;-68
2021/06/21 05:20:33;;;;;;;2.13;1.42;;;15.20;99.90;;;;;;5055292;28;20484;-68
2021/06/21 05:22:58;;;;;;;1.50;1.13;;;15.20;99.90;;;;;;5055561;28;20376;-68
2021/06/21 05:25:24;;;;;;;3.08;1.30;;;15.20;99.90;;;;;;5055228;28;20037;-68
2021/06/21 05:27:49;;;;;;;2.42;1.10;;;15.20;99.90;;;;;;5053785;28;20021;-68
2021/06/21 05:30:15;;;;;;;1.42;0.90;;;15.20;99.90;;;;;;5055285;28;20032;-68
2021/06/21 05:32:41;;;;;;;1.20;0.70;;;15.30;99.90;;;;;;5055042;28;20040;-68
2021/06/21 05:35:08;;;;;;;1.20;0.93;;;15.30;99.90;;;;;;5054979;28;20025;-68
2021/06/21 05:37:33;;;;;;;1.10;0.98;;;15.30;99.90;;;;;;5055040;28;20118;-68
2021/06/21 05:39:59;;;;;;;2.20;0.95;;;15.40;99.90;;;;;;5055347;28;20527;-68
2021/06/21 05:42:24;;;;;;;2.13;1.08;;;15.40;99.90;;;;;;5042999;28;20029;-68
2021/06/21 05:44:50;;;;;;;1.65;0.77;;;15.30;99.90;;;;;;5034425;28;20049;-68
2021/06/21 05:47:16;;;;;;;1.52;0.88;;;15.30;99.90;;;;;;5040226;28;20031;-68
2021/06/21 05:49:42;;;;;;;1.25;0.63;;;15.30;99.90;;;;;;5034070;28;20384;-68
2021/06/21 05:52:07;;;;;;;1.10;0.70;;;15.30;99.90;;;;;;5033512;28;20025;-68
2021/06/21 05:54:34;;;;;;;1.17;0.73;;;15.30;99.90;;;;;;5034654;28;20025;-68
2021/06/21 05:56:59;;;;;;;0.80;0.60;;;15.30;99.90;;;;;;5034613;28;20104;-68
2021/06/21 05:59:25;;;;;;;1.10;0.95;;;15.30;99.90;;;;;;5034817;28;20105;-68
2021/06/21 06:01:50;;;;;;;1.58;0.77;;;15.30;99.90;;;;;;5034617;28;20389;-67
2021/06/21 06:04:16;;;;;;;0.80;0.63;;;15.30;99.90;;;;;;5034538;28;20039;-67
2021/06/21 06:06:41;;;;;;;1.15;0.80;;;15.30;99.90;;;;;;5033293;28;20021;-67
2021/06/21 06:09:07;;;;;;;1.30;0.60;;;15.30;99.90;;;;;;5036672;28;20071;-68
2021/06/21 06:11:32;;;;;;;1.15;0.80;;;15.30;99.90;;;;;;5054052;28;20036;-68
2021/06/21 06:13:58;;;;;;;1.75;1.00;;;15.30;99.90;;;;;;5053267;28;20025;-68
2021/06/21 06:16:23;;;;;;;0.82;0.70;;;15.30;99.90;;;;;;5054368;28;20100;-67
2021/06/21 06:18:49;;;;;;;1.20;0.70;;;15.30;99.90;;;;;;5066681;28;20044;-67
2021/06/21 06:21:17;;;;;;;0.90;0.60;;;15.20;99.90;;;;;;5074299;28;20545;-67
2021/06/21 06:23:43;;;;;;;1.05;0.65;;;15.20;99.90;;;;;;5057222;28;20037;-67
2021/06/21 06:26:09;;;;;;;1.48;0.80;;;15.20;99.90;;;;;;5057195;28;20380;-67
2021/06/21 06:28:36;;;;;;;0.60;0.47;;;15.20;99.90;;;;;;5053593;28;20032;-67
2021/06/21 06:31:02;;;;;;;0.70;0.57;;;15.30;99.90;;;;;;5054959;28;20025;-67
2021/06/21 06:33:27;;;;;;;1.10;0.70;;;15.30;99.90;;;;;;5064466;28;20491;-67
2021/06/21 06:35:53;;;;;;;1.70;0.80;;;15.20;99.90;;;;;;5055959;28;20097;-66
2021/06/21 06:38:18;;;;;;;0.88;0.60;;;15.20;99.90;;;;;;5054249;28;20025;-66
2021/06/21 06:40:44;;;;;;;0.82;0.60;;;15.20;99.90;;;;;;5055865;28;20033;-66
2021/06/21 06:43:09;;;;;;;1.15;0.60;;;15.20;99.90;;;;;;5062361;28;20094;-67
2021/06/21 06:45:35;;;;;;;0.77;0.50;;;15.20;99.90;;;;;;5062840;28;20054;-66
2021/06/21 06:48:02;;;;;;;0.80;0.70;;;15.20;99.90;;;;;;5055559;28;20017;-66
2021/06/21 06:50:27;;;;;;;0.85;0.60;;;15.20;99.90;;;;;;5035015;28;20029;-66
2021/06/21 06:52:54;;;;;;;0.93;0.60;;;15.20;99.90;;;;;;5052905;28;20017;-66
2021/06/21 06:58:05;;;;;;;1.00;0.60;;;15.20;99.90;;;;;;5063196;28;20082;-67
2021/06/21 07:00:33;;;;;;;1.17;0.60;;;15.20;99.90;;;;;;5058293;28;20032;-67
2021/06/21 07:02:59;;;;;;;0.82;0.68;;;15.20;99.90;;;;;;5062621;28;20012;-67
2021/06/21 07:05:25;;;;;;;1.33;0.50;;;15.20;99.90;;;;;;5062388;28;20089;-67
2021/06/21 07:07:54;;;;;;;1.05;0.50;;;15.20;99.90;;;;;;5064726;28;20024;-66
2021/06/21 07:10:19;;;;;;;0.70;0.60;;;15.20;99.90;;;;;;5073206;28;20039;-66
2021/06/21 07:12:45;;;;;;;1.10;0.60;;;15.10;99.90;;;;;;5045828;28;20022;-66
2021/06/21 07:15:11;;;;;;;1.20;0.57;;;15.20;99.90;;;;;;5051632;28;20111;-66
2021/06/21 07:17:36;;;;;;;0.60;0.40;;;15.10;99.90;;;;;;5049937;28;20025;-66
2021/06/21 07:20:03;;;;;;;1.48;0.70;;;15.20;99.90;;;;;;5043375;28;20053;-66
2021/06/21 07:22:28;;;;;;;0.80;0.70;;;15.20;99.90;;;;;;5042245;28;20033;-66
2021/06/21 07:24:54;;;;;;;0.95;0.50;;;15.30;99.90;;;;;;5043988;28;20036;-66
2021/06/21 07:27:19;;;;;;;0.70;0.63;;;15.20;99.90;;;;;;5042582;28;20053;-66
2021/06/21 07:29:45;;;;;;;0.93;0.63;;;15.30;99.90;;;;;;5041331;28;20028;-66
2021/06/21 07:32:11;;;;;;;0.80;0.60;;;15.30;99.90;;;;;;5043527;28;20028;-66
2021/06/21 07:34:38;;;;;;;1.15;0.60;;;15.30;99.90;;;;;;5042161;28;20026;-66
2021/06/21 07:37:03;;;;;;;0.80;0.60;;;15.30;99.90;;;;;;5041677;28;20025;-66
2021/06/21 07:39:29;;;;;;;1.58;0.50;;;15.30;99.90;;;;;;5045851;28;20481;-66
2021/06/21 07:41:55;;;;;;;1.15;0.70;;;15.30;99.90;;;;;;5041793;28;20026;-67
2021/06/21 07:44:20;;;;;;;0.95;0.70;;;15.40;99.90;;;;;;5041747;28;20036;-66
2021/06/21 07:46:47;;;;;;;0.57;0.50;;;15.40;99.90;;;;;;5043611;28;20021;-67
2021/06/21 07:49:13;;;;;;;0.82;0.50;;;15.50;99.90;;;;;;5041515;28;20022;-67
2021/06/21 07:51:40;;;;;;;1.08;0.50;;;15.50;99.90;;;;;;5057907;28;20033;-66
2021/06/21 07:54:05;;;;;;;0.73;0.50;;;15.50;99.90;;;;;;5053380;28;20463;-66
2021/06/21 07:56:31;;;;;;;2.08;0.55;;;15.60;99.90;;;;;;5051918;28;20049;-66
2021/06/21 07:58:57;;;;;;;0.57;0.50;;;15.60;99.90;;;;;;5052731;28;20464;-66
2021/06/21 08:01:24;;;;;;;1.15;0.77;;;15.60;99.90;;;;;;5052575;28;20444;-66
2021/06/21 08:03:49;;;;;;;0.98;0.45;;;15.50;99.90;;;;;;5052193;28;20532;-66
2021/06/21 08:06:15;;;;;;;0.73;0.40;;;15.60;99.90;;;;;;5052471;28;20124;-67
2021/06/21 08:08:42;;;;;;;0.52;0.40;;;15.60;99.90;;;;;;5052544;28;20052;-67
2021/06/21 08:11:09;;;;;;;0.60;0.50;;;15.60;99.90;;;;;;5051173;28;20025;-68
2021/06/21 08:13:35;;;;;;;0.70;0.50;;;15.60;99.90;;;;;;5052555;28;20055;-67
2021/06/21 08:16:01;;;;;;;0.80;0.47;;;15.60;99.90;;;;;;5055090;28;20056;-67
2021/06/21 08:18:26;;;;;;;0.65;0.50;;;15.70;99.90;;;;;;5056213;28;20055;-67
2021/06/21 08:20:52;;;;;;;0.93;0.47;;;15.70;99.90;;;;;;5055233;28;20056;-67
2021/06/21 08:23:19;;;;;;;0.65;0.50;;;15.70;99.90;;;;;;5054831;28;20059;-67
2021/06/21 08:25:45;;;;;;;0.70;0.40;;;15.80;99.90;;;;;;5055639;28;20033;-67
2021/06/21 08:28:11;;;;;;;0.65;0.50;;;15.80;99.90;;;;;;5054384;28;20100;-67
2021/06/21 08:30:38;;;;;;;0.93;0.50;;;15.90;99.90;;;;;;5055777;28;20051;-67
2021/06/21 08:33:04;;;;;;;0.50;0.40;;;15.90;99.90;;;;;;5056078;28;20021;-69
2021/06/21 08:35:30;;;;;;;0.60;0.40;;;15.90;99.90;;;;;;5056321;28;20032;-68
2021/06/21 08:37:57;;;;;;;0.85;0.40;;;16.00;99.90;;;;;;5055001;28;20025;-68
2021/06/21 08:40:23;;;;;;;0.75;0.50;;;16.00;99.90;;;;;;5055910;28;20094;-67
2021/06/21 08:42:50;;;;;;;0.50;0.35;;;16.00;99.90;;;;;;5056106;28;20048;-68
2021/06/21 08:45:16;;;;;;;1.73;0.50;;;16.00;99.90;;;;;;5055771;28;20455;-67
2021/06/21 08:47:42;;;;;;;0.77;0.60;;;16.00;99.90;;;;;;5055834;28;20061;-68
2021/06/21 08:50:10;;;;;;;0.60;0.50;;;16.00;99.90;;;;;;5055793;28;20021;-67
2021/06/21 08:52:36;;;;;;;0.88;0.50;;;16.00;99.90;;;;;;5054611;28;20021;-67
2021/06/21 08:55:04;;;;;;;0.60;0.50;;;16.10;99.90;;;;;;5055714;28;20037;-67
2021/06/21 08:57:35;;;;;;;0.57;0.50;;;16.00;99.90;;;;;;5055679;28;20031;-69
2021/06/21 09:00:02;;;;;;;1.27;0.68;;;16.10;99.90;;;;;;5054540;28;20112;-67
2021/06/21 09:02:28;;;;;;;0.80;0.60;;;16.10;99.90;;;;;;5055455;28;20087;-67
2021/06/21 09:04:56;;;;;;;1.15;0.60;;;16.10;99.90;;;;;;5054383;28;20029;-68
2021/06/21 09:07:22;;;;;;;1.02;0.63;;;16.10;99.90;;;;;;5047176;28;20229;-68
2021/06/21 09:09:50;;;;;;;0.68;0.50;;;16.10;99.90;;;;;;5051580;28;20032;-69
2021/06/21 09:12:27;;;;;;;2.13;0.60;;;16.10;99.90;;;;;;5047673;28;20032;-67
2021/06/21 09:14:55;;;;;;;1.13;0.73;;;16.20;99.90;;;;;;5052492;28;20523;-68
2021/06/21 09:17:23;;;;;;;0.95;0.70;;;16.20;99.90;;;;;;5051132;28;20051;-68
2021/06/21 09:19:58;;;;;;;1.40;0.70;;;16.20;99.90;;;;;;5045814;28;20052;-68
2021/06/21 09:22:39;;;;;;;0.70;0.60;;;16.30;99.90;;;;;;5052131;28;20392;-67
2021/06/21 09:25:09;;;;;;;1.52;0.70;;;16.30;99.90;;;;;;5052186;28;20029;-68
2021/06/21 09:27:39;;;;;;;1.13;0.73;;;16.40;99.90;;;;;;5053535;28;20147;-68
2021/06/21 09:30:09;;;;;;;;;;;16.30;99.90;;;;;;5053939;28;20030;-68
2021/06/21 09:32:47;;;;;;;0.70;0.65;;;16.30;99.90;;;;;;5050738;28;20384;-68
2021/06/21 09:35:32;;;;;;;1.15;0.65;;;16.40;99.90;;;;;;5070440;28;20479;-69
2021/06/21 09:38:00;;;;;;;1.02;0.60;;;16.50;99.90;;;;;;5070699;28;20047;-69
2021/06/21 09:40:31;;;;;;;0.95;0.68;;;16.50;99.90;;;;;;5062024;28;20039;-68
2021/06/21 09:42:58;;;;;;;1.55;0.70;;;16.60;99.90;;;;;;5050588;28;20021;-69
2021/06/21 09:45:24;;;;;;;1.00;0.73;;;16.60;99.90;;;;;;5050053;28;20107;-69
2021/06/21 09:47:50;;;;;;;0.88;0.80;;;16.70;99.90;;;;;;5054452;28;20100;-69
2021/06/21 09:50:19;;;;;;;0.93;0.73;;;16.70;99.90;;;;;;5051011;28;20021;-69
2021/06/21 09:52:50;;;;;;;1.40;1.10;;;16.80;99.90;;;;;;5050248;28;20032;-68
2021/06/21 09:55:21;;;;;;;0.90;0.80;;;16.80;99.90;;;;;;5051569;28;20513;-68
2021/06/21 09:58:06;;;;;;;0.75;0.60;;;16.80;99.90;;;;;;5054324;28;20032;-68
2021/06/21 10:00:31;;;;;;;0.98;0.88;;;16.80;99.90;;;;;;5054356;28;20029;-68
2021/06/21 10:03:12;;;;;;;0.90;0.73;;;16.80;99.90;;;;;;5054587;28;20021;-69
2021/06/21 10:05:42;;;;;;;0.90;0.80;;;16.80;99.90;;;;;;5054132;28;20419;-69
2021/06/21 10:08:10;;;;;;;1.90;1.13;;;16.80;99.90;;;;;;5052820;28;20021;-69
2021/06/21 10:10:37;;;;;;;2.85;1.52;;;16.80;99.90;;;;;;5054198;28;20024;-70
2021/06/21 10:13:04;;;;;;;1.60;1.50;;;16.70;99.90;;;;;;5053308;28;20025;-69
2021/06/21 10:15:31;;;;;;;1.77;1.50;;;16.60;99.90;;;;;;5054221;28;20036;-70
2021/06/21 10:17:57;;;;;;;2.65;2.22;;;16.60;99.90;;;;;;5053527;28;20063;-69
2021/06/21 10:20:22;;;;;;;2.28;1.80;;;16.50;99.90;;;;;;5053881;28;20068;-69
2021/06/21 10:22:48;;;;;;;1.65;1.55;;;16.40;99.90;;;;;;5053195;28;20032;-71
2021/06/21 10:25:14;;;;;;;1.98;1.77;;;16.40;99.90;;;;;;5052331;28;20112;-70
2021/06/21 10:27:45;;;;;;;2.33;1.42;;;16.50;99.90;;;;;;5051661;28;20044;-69
2021/06/21 10:30:13;;;;;;;1.63;1.40;;;16.50;99.90;;;;;;5053569;28;20021;-69
2021/06/21 10:32:40;;;;;;;1.33;1.23;;;16.60;99.90;;;;;;5054029;28;20032;-69
2021/06/21 10:35:07;;;;;;;1.85;1.63;;;16.60;99.90;;;;;;5053537;28;21001;-70
2021/06/21 10:37:35;;;;;;;1.85;0.93;;;16.70;99.90;;;;;;5051972;28;20139;-70
2021/06/21 10:40:09;;;;;;;1.45;0.93;;;16.90;99.90;;;;;;5053663;28;20025;-69
2021/06/21 10:42:41;;;;;;;1.02;0.88;;;16.90;99.90;;;;;;5059891;28;20116;-69
2021/06/21 10:45:19;;;;;;;1.10;0.50;;;17.00;99.90;;;;;;5065912;28;20032;-69
2021/06/21 10:47:50;;;;;;;0.90;0.77;;;17.30;99.90;;;;;;5053084;28;20477;-69
2021/06/21 10:50:20;;;;;;;0.60;0.60;;;17.60;99.90;;;;;;5052779;28;20025;-69
2021/06/21 10:52:54;;;;;;;;;;;17.90;99.90;;;;;;5053126;28;20019;-69
2021/06/21 10:55:20;;;;;;;1.83;0.85;;;18.00;99.60;;;;;;5051848;28;19911;-69
2021/06/21 10:57:46;;;;;;;1.75;0.80;;;18.10;99.10;;;;;;5052542;28;20021;-69
2021/06/21 11:00:14;;;;;;;0.98;0.70;;;18.10;98.90;;;;;;5051652;28;20473;-69
2021/06/21 11:02:40;;;;;;;1.20;0.82;;;18.10;98.80;;;;;;5051988;28;20029;-70
2021/06/21 11:05:08;;;;;;;0.73;0.70;;;18.00;98.30;;;;;;5051597;28;20033;-69
2021/06/21 11:07:34;;;;;;;1.10;0.80;;;17.90;98.20;;;;;;5052556;28;20021;-71
2021/06/21 11:10:02;;;;;;;2.00;0.60;;;17.80;98.20;;;;;;5052641;28;20021;-70
2021/06/21 11:12:30;;;;;;;1.20;0.70;;;17.90;98.30;;;;;;5049650;28;20017;-70
2021/06/21 11:15:09;;;;;;;1.50;0.80;;;17.90;98.20;;;;;;5051269;28;20029;-70
2021/06/21 11:17:50;;;;;;;0.98;0.57;;;17.90;98.00;;;;;;5049459;28;20017;-71
2021/06/21 11:20:41;;;;;;;0.90;0.60;;;17.90;97.90;;;;;;5049724;28;20039;-70
2021/06/21 11:23:10;;;;;;;0.95;0.40;;;17.90;97.90;;;;;;5052188;28;20104;-70
2021/06/21 11:25:42;;;;;;;1.93;0.70;;;17.90;97.40;;;;;;5052262;28;20108;-70
2021/06/21 11:28:35;;;;;;;1.27;0.60;;;17.90;97.20;;;;;;5049818;28;20013;-70
2021/06/21 11:31:23;;;;;;;1.55;0.80;;;17.90;96.70;;;;;;5041413;28;20029;-70
2021/06/21 11:33:52;;;;;;;1.13;0.60;;;18.00;96.60;;;;;;5051970;28;20025;-70
2021/06/21 11:36:44;;;;;;;1.10;0.80;;;17.90;96.80;;;;;;5050251;28;20028;-70
2021/06/21 11:39:23;;;;;;;1.23;0.80;;;18.00;96.80;;;;;;5050110;28;20013;-70
2021/06/21 11:42:14;;;;;;;2.35;0.98;;;18.10;96.80;;;;;;5032655;28;20021;-71
2021/06/21 11:44:39;;;;;;;1.63;1.10;;;18.20;96.60;;;;;;5044738;28;20040;-69
2021/06/21 11:47:14;;;;;;;1.33;0.70;;;18.10;96.30;;;;;;5051455;28;20021;-69
2021/06/21 11:49:40;;;;;;;1.33;1.05;;;18.00;96.30;;;;;;5050179;28;20063;-68
2021/06/21 11:52:05;;;;;;;1.23;0.70;;;17.80;96.20;;;;;;5051111;28;20257;-68
2021/06/21 11:54:39;;;;;;;1.52;0.77;;;17.90;96.20;;;;;;5052188;28;20035;-70
2021/06/21 11:57:06;;;;;;;1.25;0.80;;;17.90;96.30;;;;;;5052862;28;20100;-70
2021/06/21 11:59:41;;;;;;;1.13;0.70;;;18.00;96.30;;;;;;5052366;28;20445;-69
2021/06/21 12:02:24;;;;;;;2.35;0.80;;;18.00;95.90;;;;;;5051153;28;20057;-70
2021/06/21 12:04:54;;;;;;;0.73;0.73;;;18.10;95.90;;;;;;5050477;28;20088;-70
2021/06/21 12:07:37;;;;;;;0.82;0.70;;;18.10;95.90;;;;;;5052043;28;20052;-70
2021/06/21 12:10:06;;;;;;;1.17;0.68;;;18.30;95.80;;;;;;5032624;28;20032;-69
2021/06/21 12:12:34;;;;;;;0.60;0.40;;;18.40;95.60;;;;;;5032387;28;20127;-69
2021/06/21 12:15:00;;;;;;;0.98;0.60;;;18.50;95.50;;;;;;5030968;28;20040;-69
2021/06/21 12:17:28;;;;;;;1.40;0.60;;;18.50;95.30;;;;;;5045257;28;20059;-70
2021/06/21 12:20:14;;;;;;;1.50;0.50;;;18.50;95.20;;;;;;5052262;28;20041;-71
2021/06/21 12:22:41;;;;;;;1.20;0.60;;;18.50;95.10;;;;;;5052522;28;20481;-70
2021/06/21 12:25:23;;;;;;;1.23;0.70;;;18.50;95.10;;;;;;5052433;28;20055;-70
2021/06/21 12:27:50;;;;;;;1.15;0.60;;;18.60;95.00;;;;;;5052388;28;20480;-69
2021/06/21 12:30:32;;;;;;;1.75;0.70;;;18.70;95.00;;;;;;5052318;28;20116;-70
2021/06/21 12:32:58;;;;;;;0.70;0.60;;;18.80;94.70;;;;;;5052353;28;20025;-69
2021/06/21 12:35:23;;;;;;;2.53;0.80;;;18.80;94.60;;;;;;5051850;28;20037;-69
2021/06/21 12:37:49;;;;;;;0.60;0.50;;;18.90;94.20;;;;;;5050794;28;20029;-69
2021/06/21 12:40:20;;;;;;;0.88;0.60;;;18.90;94.30;;;;;;5051944;28;20113;-70
2021/06/21 12:42:47;;;;;;;2.13;0.70;;;19.00;94.00;;;;;;5050422;28;20021;-68
2021/06/21 12:45:20;;;;;;;1.15;0.60;;;18.90;93.90;;;;;;5051982;28;20381;-70
2021/06/21 12:47:51;;;;;;;1.27;0.70;;;18.80;93.70;;;;;;5050690;28;20120;-71
2021/06/21 12:50:19;;;;;;;1.17;0.70;;;18.70;93.80;;;;;;5049020;28;20029;-70
2021/06/21 12:52:46;;;;;;;0.70;0.60;;;18.70;93.90;;;;;;5051609;28;20566;-69
2021/06/21 12:55:15;;;;;;;2.58;0.70;;;18.90;93.90;;;;;;5053743;28;20021;-69
2021/06/21 12:57:46;;;;;;;1.10;0.63;;;19.00;93.70;;;;;;5061728;28;20029;-70